Time;durP1;ratioP1;P1;durP2;ratioP2;P2;SDS_P1;SDS_P2;PMS_P1;PMS_P2;Temp;Humidity;BMP_temperature;BMP_pressure;BME280_temperature;BME280_humidity;BME280_pressure;Samples;Min_cycle;Max_cycle;Signal;HPM_P1;HPM_P2
2021/01/10 00:01:15;;;;;;;5.75;3.30;;;8.70;69.80;;;;;;5072545;28;20031;-70
2021/01/10 00:03:41;;;;;;;6.30;3.67;;;8.70;69.90;;;;;;5071310;28;20025;-71
2021/01/10 00:06:08;;;;;;;4.95;3.17;;;8.70;69.90;;;;;;5072393;28;20036;-70
2021/01/10 00:08:34;;;;;;;6.47;3.40;;;8.70;70.10;;;;;;5072550;28;20024;-70
2021/01/10 00:10:59;;;;;;;5.68;3.38;;;8.70;69.80;;;;;;5072240;28;20047;-70
2021/01/10 00:13:25;;;;;;;4.72;2.92;;;8.70;70.00;;;;;;5072538;28;20024;-71
2021/01/10 00:15:51;;;;;;;7.43;4.20;;;8.80;70.10;;;;;;5072664;28;20026;-70
2021/01/10 00:18:16;;;;;;;5.53;3.13;;;8.70;70.00;;;;;;5072251;28;20099;-70
2021/01/10 00:20:42;;;;;;;5.18;3.20;;;8.70;70.10;;;;;;5072227;28;20122;-72
2021/01/10 00:23:08;;;;;;;4.93;3.15;;;8.70;70.40;;;;;;5072516;28;20029;-70
2021/01/10 00:25:34;;;;;;;6.18;3.63;;;8.70;70.20;;;;;;5072210;28;20016;-70
2021/01/10 00:28:00;;;;;;;5.13;3.08;;;8.70;70.10;;;;;;5072500;28;20431;-70
2021/01/10 00:30:26;;;;;;;4.53;3.15;;;8.70;70.30;;;;;;5070771;28;20031;-70
2021/01/10 00:32:53;;;;;;;5.25;3.10;;;8.70;70.10;;;;;;5072155;28;20035;-70
2021/01/10 00:35:20;;;;;;;4.32;2.70;;;8.70;70.30;;;;;;5070818;28;20025;-71
2021/01/10 00:37:51;;;;;;;4.85;3.20;;;8.70;70.10;;;;;;5072965;28;20024;-70
2021/01/10 00:40:18;;;;;;;4.85;3.00;;;8.70;70.20;;;;;;5074502;28;20028;-72
2021/01/10 00:42:44;;;;;;;4.72;3.03;;;8.60;70.30;;;;;;5075722;28;20443;-70
2021/01/10 00:45:12;;;;;;;5.32;3.03;;;8.70;70.30;;;;;;5075652;28;20028;-71
2021/01/10 00:47:38;;;;;;;5.45;2.67;;;8.70;70.60;;;;;;5075769;28;20040;-70
2021/01/10 00:50:06;;;;;;;5.10;2.78;;;8.70;70.60;;;;;;5075355;28;20021;-69
2021/01/10 00:52:32;;;;;;;4.30;2.83;;;8.60;70.60;;;;;;5075747;28;20108;-70
2021/01/10 00:54:57;;;;;;;5.03;2.83;;;8.60;70.70;;;;;;5075644;28;20024;-69
2021/01/10 00:57:23;;;;;;;4.22;2.60;;;8.60;70.70;;;;;;5075665;28;20024;-71
2021/01/10 00:59:49;;;;;;;5.53;2.80;;;8.60;70.60;;;;;;5075438;28;20032;-70
2021/01/10 01:02:15;;;;;;;5.88;3.10;;;8.50;70.70;;;;;;5075239;28;20062;-70
2021/01/10 01:04:41;;;;;;;4.40;2.78;;;8.60;70.90;;;;;;5075283;28;20029;-69
2021/01/10 01:07:06;;;;;;;4.43;2.80;;;8.60;71.00;;;;;;5075332;28;20037;-69
2021/01/10 01:09:32;;;;;;;3.92;2.60;;;8.60;71.10;;;;;;5075682;28;20047;-70
2021/01/10 01:11:59;;;;;;;4.45;2.83;;;8.60;71.10;;;;;;5075126;28;20105;-69
2021/01/10 01:14:25;;;;;;;4.53;2.75;;;8.50;70.70;;;;;;5075115;28;20066;-70
2021/01/10 01:16:50;;;;;;;5.05;2.60;;;8.50;70.90;;;;;;5075200;28;20032;-71
2021/01/10 01:19:16;;;;;;;6.00;3.00;;;8.50;71.10;;;;;;5075123;28;20039;-70
2021/01/10 01:21:42;;;;;;;4.40;2.45;;;8.50;71.30;;;;;;5075012;28;20024;-70
2021/01/10 01:24:08;;;;;;;4.03;2.50;;;8.40;71.10;;;;;;5075387;28;20028;-70
2021/01/10 01:26:34;;;;;;;6.35;2.50;;;8.40;71.50;;;;;;5074764;28;20033;-69
2021/01/10 01:28:59;;;;;;;4.78;2.83;;;8.40;71.20;;;;;;5074914;28;20086;-70
2021/01/10 01:31:27;;;;;;;5.60;2.80;;;8.40;71.60;;;;;;5074892;28;20052;-70
2021/01/10 01:33:54;;;;;;;3.83;2.50;;;8.40;71.60;;;;;;5075559;28;20024;-71
2021/01/10 01:36:23;;;;;;;4.35;2.70;;;8.40;71.40;;;;;;5074739;28;20052;-69
2021/01/10 01:38:54;;;;;;;4.30;2.50;;;8.40;71.50;;;;;;5074714;28;20029;-70
2021/01/10 01:41:20;;;;;;;5.88;2.75;;;8.40;72.00;;;;;;5073213;28;20035;-70
2021/01/10 01:43:46;;;;;;;4.57;2.85;;;8.40;71.80;;;;;;5074601;28;20100;-69
2021/01/10 01:46:26;;;;;;;4.85;2.60;;;8.30;71.70;;;;;;5074312;28;20481;-70
2021/01/10 01:48:52;;;;;;;4.63;2.38;;;8.30;72.30;;;;;;5074250;28;20036;-69
2021/01/10 01:51:19;;;;;;;7.38;2.80;;;8.30;72.20;;;;;;5074359;28;20032;-70
2021/01/10 01:53:46;;;;;;;5.15;2.30;;;8.20;72.20;;;;;;5074487;28;20051;-71
2021/01/10 01:56:12;;;;;;;4.20;2.65;;;8.20;72.30;;;;;;5074343;28;20029;-70
2021/01/10 01:58:37;;;;;;;4.80;2.83;;;8.20;72.50;;;;;;5074469;28;20189;-70
2021/01/10 02:01:03;;;;;;;5.60;2.80;;;8.20;72.20;;;;;;5074138;28;20457;-70
2021/01/10 02:03:34;;;;;;;5.15;2.45;;;8.20;72.60;;;;;;5073982;28;20032;-71
2021/01/10 02:06:16;;;;;;;4.85;2.42;;;8.10;72.30;;;;;;5074099;28;20028;-70
2021/01/10 02:08:42;;;;;;;5.78;2.92;;;8.10;72.70;;;;;;5072395;28;20058;-70
2021/01/10 02:11:11;;;;;;;4.28;2.83;;;8.00;73.00;;;;;;5073491;28;20048;-70
2021/01/10 02:13:38;;;;;;;5.40;2.85;;;8.00;73.40;;;;;;5073654;28;20059;-70
2021/01/10 02:16:05;;;;;;;5.80;2.72;;;8.00;73.20;;;;;;5073864;28;20017;-70
2021/01/10 02:18:35;;;;;;;4.57;2.65;;;8.00;73.50;;;;;;5073898;28;20020;-70
2021/01/10 02:21:06;;;;;;;3.90;2.30;;;8.00;73.40;;;;;;5073556;28;20063;-69
2021/01/10 02:23:33;;;;;;;4.32;2.60;;;8.00;73.10;;;;;;5073454;28;20025;-69
2021/01/10 02:25:59;;;;;;;4.88;2.50;;;8.00;73.60;;;;;;5072268;28;20114;-70
2021/01/10 02:28:30;;;;;;;4.35;2.58;;;8.00;73.10;;;;;;5073776;28;20418;-70
2021/01/10 02:30:58;;;;;;;3.92;2.58;;;8.00;73.40;;;;;;5073370;28;20420;-69
2021/01/10 02:33:45;;;;;;;4.18;2.70;;;8.00;73.70;;;;;;5073683;28;20054;-70
2021/01/10 02:36:22;;;;;;;4.50;2.63;;;7.90;73.40;;;;;;5072131;28;20082;-70
2021/01/10 02:38:58;;;;;;;5.68;2.50;;;7.90;73.80;;;;;;5073342;28;20025;-71
2021/01/10 02:41:49;;;;;;;4.30;2.42;;;7.90;73.80;;;;;;5073694;28;20029;-71
2021/01/10 02:44:21;;;;;;;6.43;3.13;;;7.90;74.20;;;;;;5073272;28;20020;-70
2021/01/10 02:46:52;;;;;;;4.15;2.55;;;7.90;73.80;;;;;;5073293;28;20044;-69
2021/01/10 02:49:18;;;;;;;3.88;2.60;;;7.90;73.90;;;;;;5073326;28;20031;-69
2021/01/10 02:51:45;;;;;;;4.18;2.60;;;8.00;73.80;;;;;;5073085;28;20031;-70
2021/01/10 02:54:12;;;;;;;5.00;2.92;;;8.00;73.60;;;;;;5073248;28;20040;-70
2021/01/10 02:56:41;;;;;;;5.30;2.50;;;8.00;73.60;;;;;;5073012;28;20226;-70
2021/01/10 02:59:09;;;;;;;5.65;2.85;;;8.10;73.70;;;;;;5072693;28;20488;-70
2021/01/10 03:01:35;;;;;;;4.90;2.53;;;8.10;73.70;;;;;;5072335;28;20046;-70
2021/01/10 03:04:03;;;;;;;4.30;2.40;;;8.20;73.40;;;;;;5071626;28;20111;-70
2021/01/10 03:06:29;;;;;;;5.10;2.53;;;8.10;73.30;;;;;;5072957;28;20040;-70
2021/01/10 03:08:54;;;;;;;3.47;2.30;;;8.10;73.60;;;;;;5072964;28;20439;-69
2021/01/10 03:11:21;;;;;;;3.55;2.33;;;8.10;73.70;;;;;;5072420;28;20082;-70
2021/01/10 03:13:46;;;;;;;4.00;2.50;;;8.10;73.70;;;;;;5073216;28;20074;-70
2021/01/10 03:16:12;;;;;;;3.58;2.30;;;8.10;74.10;;;;;;5073120;28;20017;-70
2021/01/10 03:18:38;;;;;;;4.05;2.60;;;8.10;74.10;;;;;;5073104;28;20397;-70
2021/01/10 03:21:04;;;;;;;3.75;2.30;;;8.20;74.10;;;;;;5072701;28;20073;-71
2021/01/10 03:23:29;;;;;;;3.25;2.08;;;8.20;73.70;;;;;;5078238;28;20559;-70
2021/01/10 03:25:55;;;;;;;3.92;2.40;;;8.20;73.50;;;;;;5088078;28;20025;-74
2021/01/10 03:28:21;;;;;;;3.70;2.33;;;8.20;73.90;;;;;;5085724;28;20028;-71
2021/01/10 03:30:46;;;;;;;4.13;2.53;;;8.20;73.50;;;;;;5073098;28;20028;-72
2021/01/10 03:33:12;;;;;;;3.92;2.33;;;8.20;73.60;;;;;;5073057;28;20032;-71
2021/01/10 03:35:39;;;;;;;3.40;2.25;;;8.20;73.70;;;;;;5071363;28;20028;-70
2021/01/10 03:38:06;;;;;;;3.47;2.10;;;8.10;73.50;;;;;;5072808;28;20028;-71
2021/01/10 03:40:32;;;;;;;4.45;2.13;;;8.10;73.60;;;;;;5071410;28;20063;-71
2021/01/10 03:42:58;;;;;;;6.63;2.35;;;8.10;73.70;;;;;;5072949;28;20103;-72
2021/01/10 03:45:24;;;;;;;4.15;2.50;;;8.10;73.80;;;;;;5072766;28;20523;-71
2021/01/10 03:47:50;;;;;;;4.93;2.13;;;8.10;73.90;;;;;;5072777;28;20044;-72
2021/01/10 03:50:17;;;;;;;4.03;2.20;;;8.10;73.60;;;;;;5072675;28;20024;-71
2021/01/10 03:52:42;;;;;;;4.10;2.33;;;8.20;73.80;;;;;;5072964;28;20033;-71
2021/01/10 03:55:08;;;;;;;3.97;2.22;;;8.20;73.70;;;;;;5072900;28;20382;-72
2021/01/10 03:57:37;;;;;;;5.20;2.10;;;8.10;73.70;;;;;;5071135;28;20035;-72
2021/01/10 04:00:05;;;;;;;4.35;2.10;;;8.10;73.70;;;;;;5072443;28;20465;-72
2021/01/10 04:02:31;;;;;;;4.93;2.42;;;8.10;74.00;;;;;;5072563;28;20029;-72
2021/01/10 04:04:56;;;;;;;3.65;2.03;;;8.10;73.90;;;;;;5072733;28;20108;-72
2021/01/10 04:07:22;;;;;;;4.53;2.28;;;8.10;74.00;;;;;;5072703;28;20036;-71
2021/01/10 04:09:48;;;;;;;4.85;2.10;;;8.20;73.60;;;;;;5072356;28;20033;-71
2021/01/10 04:12:13;;;;;;;3.60;2.08;;;8.20;73.80;;;;;;5074081;28;20064;-71
2021/01/10 04:14:39;;;;;;;2.95;1.83;;;8.30;73.70;;;;;;5076286;28;20406;-71
2021/01/10 04:17:05;;;;;;;3.63;2.15;;;8.20;73.50;;;;;;5076135;28;20025;-70
2021/01/10 04:19:31;;;;;;;5.72;2.00;;;8.20;73.50;;;;;;5076104;28;20285;-71
2021/01/10 04:21:57;;;;;;;3.45;2.10;;;8.20;73.70;;;;;;5076417;28;20525;-72
2021/01/10 04:24:22;;;;;;;3.47;2.13;;;8.20;73.60;;;;;;5075965;28;20469;-72
2021/01/10 04:26:49;;;;;;;3.80;2.22;;;8.20;73.80;;;;;;5076244;28;20110;-71
2021/01/10 04:29:19;;;;;;;3.53;2.15;;;8.20;73.90;;;;;;5075836;28;20454;-71
2021/01/10 04:31:47;;;;;;;4.18;1.92;;;8.20;73.80;;;;;;5075922;28;20039;-71
2021/01/10 04:34:13;;;;;;;3.70;2.13;;;8.30;73.80;;;;;;5076077;28;20028;-72
2021/01/10 04:36:38;;;;;;;4.43;2.20;;;8.30;73.60;;;;;;5075967;28;20311;-72
2021/01/10 04:39:04;;;;;;;4.65;1.90;;;8.20;73.40;;;;;;5075553;28;20043;-71
2021/01/10 04:41:31;;;;;;;4.43;2.28;;;8.20;73.40;;;;;;5075787;28;20047;-72
2021/01/10 04:43:57;;;;;;;4.78;2.30;;;8.20;73.80;;;;;;5076006;28;20033;-71
2021/01/10 04:46:23;;;;;;;5.97;2.25;;;8.10;73.60;;;;;;5074410;28;20037;-72
2021/01/10 04:48:49;;;;;;;3.90;2.10;;;8.10;74.10;;;;;;5075951;28;20378;-72
2021/01/10 04:51:15;;;;;;;3.63;2.58;;;8.10;74.20;;;;;;5075386;28;20028;-72
2021/01/10 04:53:45;;;;;;;5.07;2.42;;;8.10;74.10;;;;;;5074305;28;20028;-71
2021/01/10 04:56:13;;;;;;;3.67;1.90;;;8.10;74.10;;;;;;5075426;28;20036;-71
2021/01/10 04:58:41;;;;;;;4.40;2.50;;;8.10;74.10;;;;;;5075393;28;20028;-71
2021/01/10 05:01:13;;;;;;;4.25;2.30;;;8.10;74.00;;;;;;5075265;28;20477;-73
2021/01/10 05:03:41;;;;;;;4.45;2.30;;;8.00;74.00;;;;;;5075433;28;20021;-73
2021/01/10 05:06:08;;;;;;;5.60;2.28;;;8.00;74.00;;;;;;5075328;28;20060;-72
2021/01/10 05:08:34;;;;;;;3.92;2.22;;;8.10;74.40;;;;;;5075700;28;20486;-72
2021/01/10 05:10:59;;;;;;;4.38;2.00;;;8.10;74.20;;;;;;5075195;28;20507;-71
2021/01/10 05:13:25;;;;;;;3.90;2.22;;;8.10;74.10;;;;;;5075270;28;20036;-71
2021/01/10 05:15:55;;;;;;;2.92;1.90;;;8.10;74.00;;;;;;5075323;28;20058;-72
2021/01/10 05:18:21;;;;;;;4.38;2.00;;;8.10;73.90;;;;;;5074902;28;20032;-72
2021/01/10 05:20:47;;;;;;;3.88;2.35;;;8.10;73.80;;;;;;5075347;28;20029;-72
2021/01/10 05:23:14;;;;;;;3.67;2.15;;;8.20;73.90;;;;;;5074589;28;20074;-73
2021/01/10 05:25:40;;;;;;;5.03;2.17;;;8.30;74.00;;;;;;5074958;28;20028;-72
2021/01/10 05:28:08;;;;;;;5.32;2.03;;;8.20;73.60;;;;;;5075247;28;20367;-72
2021/01/10 05:30:34;;;;;;;5.60;2.20;;;8.30;73.50;;;;;;5074720;28;20020;-71
2021/01/10 05:33:02;;;;;;;3.67;2.10;;;8.20;73.50;;;;;;5074952;28;20052;-72
2021/01/10 05:35:28;;;;;;;4.90;2.33;;;8.30;73.60;;;;;;5075041;28;20099;-70
2021/01/10 05:37:56;;;;;;;4.32;2.40;;;8.30;73.60;;;;;;5074866;28;20024;-72
2021/01/10 05:40:28;;;;;;;4.50;2.10;;;8.30;73.50;;;;;;5073557;28;20503;-72
2021/01/10 05:42:56;;;;;;;5.07;2.10;;;8.30;73.50;;;;;;5074675;28;20381;-71
2021/01/10 05:45:35;;;;;;;3.60;2.10;;;8.30;73.50;;;;;;5074759;28;20040;-71
2021/01/10 05:48:12;;;;;;;3.75;2.10;;;8.20;73.50;;;;;;5074746;28;20500;-71
2021/01/10 05:50:51;;;;;;;4.72;2.30;;;8.20;73.60;;;;;;5074567;28;20115;-72
2021/01/10 05:53:21;;;;;;;3.50;2.00;;;8.30;73.50;;;;;;5074864;28;20093;-72
2021/01/10 05:55:57;;;;;;;3.92;2.05;;;8.20;73.40;;;;;;5074830;28;20480;-70
2021/01/10 05:58:24;;;;;;;5.65;2.20;;;8.30;73.70;;;;;;5072943;28;20025;-71
2021/01/10 06:00:53;;;;;;;4.10;2.10;;;8.30;73.20;;;;;;5074310;28;20109;-71
2021/01/10 06:03:24;;;;;;;5.68;2.40;;;8.30;73.10;;;;;;5072937;28;20028;-72
2021/01/10 06:05:57;;;;;;;3.88;1.90;;;8.30;73.30;;;;;;5074324;28;20031;-72
2021/01/10 06:08:26;;;;;;;3.67;2.30;;;8.30;73.30;;;;;;5074244;28;20080;-72
2021/01/10 06:10:52;;;;;;;6.55;2.35;;;8.30;73.50;;;;;;5074071;28;20044;-70
2021/01/10 06:13:19;;;;;;;5.60;2.42;;;8.30;73.60;;;;;;5074343;28;20466;-71
2021/01/10 06:15:50;;;;;;;4.60;2.22;;;8.30;73.50;;;;;;5074041;28;20476;-71
2021/01/10 06:18:17;;;;;;;4.13;2.00;;;8.30;73.50;;;;;;5074123;28;20442;-70
2021/01/10 06:20:43;;;;;;;4.63;2.33;;;8.30;73.30;;;;;;5072583;28;20385;-70
2021/01/10 06:23:10;;;;;;;4.35;2.30;;;8.30;73.20;;;;;;5074057;28;20440;-71
2021/01/10 06:25:40;;;;;;;4.05;2.40;;;8.30;73.20;;;;;;5073969;28;20024;-71
2021/01/10 06:28:13;;;;;;;4.35;2.22;;;8.30;73.10;;;;;;5073853;28;20107;-71
2021/01/10 06:30:59;;;;;;;8.05;2.53;;;8.40;73.50;;;;;;5073510;28;20038;-70
2021/01/10 06:33:32;;;;;;;3.97;2.28;;;8.30;73.40;;;;;;5073330;28;20025;-70
2021/01/10 06:36:02;;;;;;;4.93;2.22;;;8.30;73.30;;;;;;5072837;28;20516;-70
2021/01/10 06:38:32;;;;;;;5.72;2.50;;;8.40;72.90;;;;;;5073678;28;20016;-70
2021/01/10 06:41:15;;;;;;;5.20;2.33;;;8.40;72.70;;;;;;5073409;28;20040;-69
2021/01/10 06:43:43;;;;;;;3.25;2.10;;;8.40;72.70;;;;;;5073324;28;20104;-70
2021/01/10 06:46:09;;;;;;;4.60;2.35;;;8.50;72.60;;;;;;5073520;28;20040;-70
2021/01/10 06:48:35;;;;;;;7.82;1.90;;;8.50;72.30;;;;;;5071997;28;20024;-69
2021/01/10 06:51:02;;;;;;;4.55;2.00;;;8.50;72.40;;;;;;5073177;28;20028;-70
2021/01/10 06:53:30;;;;;;;4.28;2.00;;;8.50;72.10;;;;;;5073342;28;20362;-70
2021/01/10 06:55:56;;;;;;;4.10;2.10;;;8.40;72.20;;;;;;5073279;28;20107;-70
2021/01/10 06:58:22;;;;;;;3.83;2.22;;;8.40;72.40;;;;;;5073345;28;20063;-69
2021/01/10 07:00:58;;;;;;;4.53;2.00;;;8.40;72.40;;;;;;5073145;28;20056;-70
2021/01/10 07:03:28;;;;;;;4.38;2.08;;;8.50;72.50;;;;;;5071938;28;20016;-70
2021/01/10 07:05:57;;;;;;;3.80;1.92;;;8.50;72.10;;;;;;5073123;28;20105;-70
2021/01/10 07:08:55;;;;;;;3.83;2.05;;;8.50;72.10;;;;;;5073181;28;20117;-70
2021/01/10 07:11:23;;;;;;;5.80;2.53;;;8.50;72.60;;;;;;5072729;28;20070;-70
2021/01/10 07:13:51;;;;;;;4.28;2.03;;;8.40;72.10;;;;;;5073340;28;20033;-70
2021/01/10 07:16:21;;;;;;;4.57;2.35;;;8.50;72.20;;;;;;5073007;28;20031;-70
2021/01/10 07:18:57;;;;;;;10.35;2.40;;;8.50;72.20;;;;;;5073108;28;20020;-70
2021/01/10 07:21:31;;;;;;;3.85;2.00;;;8.60;72.60;;;;;;5072952;28;20036;-70
2021/01/10 07:24:24;;;;;;;6.43;2.45;;;8.50;72.20;;;;;;5073315;28;20073;-70
2021/01/10 07:26:52;;;;;;;4.85;1.92;;;8.60;72.40;;;;;;5073014;28;20039;-72
2021/01/10 07:29:43;;;;;;;4.68;2.30;;;8.60;71.60;;;;;;5072767;28;20017;-72
2021/01/10 07:32:12;;;;;;;4.18;1.98;;;8.60;71.40;;;;;;5072945;28;20103;-70
2021/01/10 07:34:58;;;;;;;4.40;2.15;;;8.60;71.30;;;;;;5072855;28;20029;-71
2021/01/10 07:37:24;;;;;;;6.10;2.28;;;8.60;71.60;;;;;;5071540;28;20123;-70
2021/01/10 07:40:04;;;;;;;4.85;2.08;;;8.60;71.50;;;;;;5072835;28;20486;-72
2021/01/10 07:42:32;;;;;;;5.00;2.17;;;8.60;71.40;;;;;;5073240;28;20028;-71
2021/01/10 07:44:59;;;;;;;8.23;2.55;;;8.60;71.30;;;;;;5072737;28;20021;-71
2021/01/10 07:47:33;;;;;;;4.35;2.38;;;8.60;71.40;;;;;;5075546;28;20064;-72
2021/01/10 07:50:14;;;;;;;4.35;2.08;;;8.60;71.30;;;;;;5077849;28;20033;-70
2021/01/10 07:52:44;;;;;;;4.15;1.90;;;8.60;71.80;;;;;;5077910;28;20033;-70
2021/01/10 07:55:18;;;;;;;3.63;2.10;;;8.60;71.40;;;;;;5077237;28;20527;-71
2021/01/10 07:57:44;;;;;;;4.90;2.17;;;8.60;71.60;;;;;;5076627;28;20108;-71
2021/01/10 08:00:11;;;;;;;4.13;2.20;;;8.70;71.40;;;;;;5076440;28;20028;-72
2021/01/10 08:02:57;;;;;;;5.00;2.47;;;8.60;71.30;;;;;;5076477;28;20027;-71
2021/01/10 08:05:26;;;;;;;3.97;2.00;;;8.70;71.80;;;;;;5076356;28;20020;-73
2021/01/10 08:08:14;;;;;;;4.53;2.70;;;8.70;71.50;;;;;;5075012;28;20106;-70
2021/01/10 08:10:41;;;;;;;7.18;3.00;;;8.60;71.80;;;;;;5074664;28;20139;-71
2021/01/10 08:13:26;;;;;;;5.43;2.55;;;8.60;71.60;;;;;;5076237;28;20040;-72
2021/01/10 08:15:52;;;;;;;8.93;3.03;;;8.60;71.80;;;;;;5076057;28;20535;-71
2021/01/10 08:18:23;;;;;;;4.60;2.72;;;8.60;71.80;;;;;;5076081;28;20049;-71
2021/01/10 08:20:52;;;;;;;7.18;2.80;;;8.60;72.30;;;;;;5074999;28;20054;-71
2021/01/10 08:23:18;;;;;;;5.25;3.03;;;8.60;72.50;;;;;;5076404;28;20028;-72
2021/01/10 08:25:44;;;;;;;6.00;3.15;;;8.60;72.50;;;;;;5076181;28;20024;-72
2021/01/10 08:28:21;;;;;;;7.32;3.17;;;8.60;72.50;;;;;;5075987;28;20121;-71
2021/01/10 08:30:47;;;;;;;4.90;3.13;;;8.60;72.80;;;;;;5075663;28;20040;-72
2021/01/10 08:33:21;;;;;;;5.78;3.17;;;8.60;73.20;;;;;;5074921;28;20084;-71
2021/01/10 08:35:48;;;;;;;8.18;3.45;;;8.50;73.50;;;;;;5076283;28;20021;-72
2021/01/10 08:38:14;;;;;;;7.35;3.78;;;8.50;73.90;;;;;;5076003;28;20024;-72
2021/01/10 08:40:40;;;;;;;7.55;3.75;;;8.40;73.70;;;;;;5074852;28;20025;-72
2021/01/10 08:43:06;;;;;;;5.38;3.40;;;8.50;74.50;;;;;;5076524;28;20446;-72
2021/01/10 08:45:33;;;;;;;5.65;3.45;;;8.50;74.50;;;;;;5075969;28;20060;-71
2021/01/10 08:48:03;;;;;;;6.32;3.90;;;8.40;74.50;;;;;;5075656;28;20032;-70
2021/01/10 08:50:40;;;;;;;7.38;3.45;;;8.40;74.90;;;;;;5075428;28;20092;-70
2021/01/10 08:53:06;;;;;;;5.50;3.00;;;8.40;74.90;;;;;;5075712;28;20377;-71
2021/01/10 08:55:41;;;;;;;6.78;3.47;;;8.40;75.40;;;;;;5075420;28;20033;-71
2021/01/10 08:58:08;;;;;;;5.32;3.38;;;8.50;75.40;;;;;;5074524;28;20078;-72
2021/01/10 09:00:39;;;;;;;6.63;3.78;;;8.40;75.50;;;;;;5075443;28;20101;-71
2021/01/10 09:03:15;;;;;;;8.80;3.90;;;8.50;75.60;;;;;;5075515;28;20121;-71
2021/01/10 09:05:42;;;;;;;5.90;3.40;;;8.50;75.20;;;;;;5075443;28;20074;-72
2021/01/10 09:08:35;;;;;;;6.25;3.45;;;8.50;75.40;;;;;;5075422;28;20519;-71
2021/01/10 09:11:22;;;;;;;8.77;3.47;;;8.60;75.10;;;;;;5075110;28;20076;-71
2021/01/10 09:13:50;;;;;;;7.82;3.60;;;8.60;75.50;;;;;;5075148;28;20074;-71
2021/01/10 09:16:18;;;;;;;8.05;3.60;;;8.60;75.50;;;;;;5075338;28;20032;-72
2021/01/10 09:18:47;;;;;;;7.53;3.70;;;8.60;75.60;;;;;;5075555;28;20532;-71
2021/01/10 09:21:15;;;;;;;7.20;3.70;;;8.60;75.80;;;;;;5074984;28;20033;-70
2021/01/10 09:23:53;;;;;;;9.05;3.70;;;8.60;75.80;;;;;;5075298;28;20028;-72
2021/01/10 09:26:29;;;;;;;6.20;3.38;;;8.70;75.60;;;;;;5075301;28;20150;-73
2021/01/10 09:28:56;;;;;;;6.90;3.13;;;8.70;75.40;;;;;;5073238;28;20028;-73
2021/01/10 09:31:40;;;;;;;7.45;3.13;;;8.80;75.70;;;;;;5074981;28;20481;-70
2021/01/10 09:34:05;;;;;;;5.68;3.47;;;8.90;75.50;;;;;;5074656;28;20031;-70
2021/01/10 09:36:32;;;;;;;6.43;3.67;;;8.90;75.20;;;;;;5074567;28;20025;-71
2021/01/10 09:38:58;;;;;;;9.68;3.35;;;8.90;75.50;;;;;;5073261;28;20074;-70
2021/01/10 09:41:24;;;;;;;7.63;3.20;;;8.90;75.70;;;;;;5074409;28;20020;-71
2021/01/10 09:43:55;;;;;;;7.95;3.38;;;8.80;75.20;;;;;;5073383;28;20021;-71
2021/01/10 09:46:49;;;;;;;6.10;3.30;;;8.90;75.30;;;;;;5073138;28;20111;-71
2021/01/10 09:49:31;;;;;;;7.47;3.20;;;8.90;75.30;;;;;;5074470;28;20024;-71
2021/01/10 09:52:02;;;;;;;8.90;3.72;;;9.00;75.30;;;;;;5073140;28;20032;-71
2021/01/10 09:54:35;;;;;;;8.75;3.60;;;9.00;75.30;;;;;;5074394;28;20028;-72
2021/01/10 09:57:08;;;;;;;6.13;3.22;;;9.00;74.80;;;;;;5073149;28;20032;-71
2021/01/10 09:59:37;;;;;;;4.70;2.30;;;9.00;75.20;;;;;;5074312;28;20024;-72
2021/01/10 10:02:15;;;;;;;6.50;3.47;;;9.00;75.20;;;;;;5074378;28;20095;-70
2021/01/10 10:04:54;;;;;;;6.03;3.47;;;9.10;75.00;;;;;;5072696;28;20063;-71
2021/01/10 10:07:32;;;;;;;10.15;3.67;;;9.10;75.40;;;;;;5074194;28;20040;-71
2021/01/10 10:09:58;;;;;;;9.32;3.97;;;9.20;74.60;;;;;;5072158;28;20036;-70
2021/01/10 10:12:24;;;;;;;6.90;3.63;;;9.20;74.40;;;;;;5073889;28;20071;-71
2021/01/10 10:15:07;;;;;;;8.45;4.30;;;9.20;74.40;;;;;;5073940;28;20029;-71
2021/01/10 10:17:37;;;;;;;7.10;4.03;;;9.30;75.00;;;;;;5073915;28;20034;-72
2021/01/10 10:20:08;;;;;;;8.15;3.13;;;9.30;74.10;;;;;;5073888;28;20027;-72
2021/01/10 10:22:36;;;;;;;4.63;3.00;;;9.30;73.90;;;;;;5072648;28;20024;-72
2021/01/10 10:25:06;;;;;;;7.18;3.30;;;9.30;73.70;;;;;;5073900;28;20099;-72
2021/01/10 10:27:32;;;;;;;8.80;3.50;;;9.30;73.90;;;;;;5072215;28;20036;-70
2021/01/10 10:29:59;;;;;;;5.85;3.50;;;9.30;73.80;;;;;;5073381;28;20071;-71
2021/01/10 10:32:26;;;;;;;8.07;4.07;;;9.20;73.90;;;;;;5073747;28;20108;-70
2021/01/10 10:34:52;;;;;;;10.20;3.70;;;9.30;74.00;;;;;;5072224;28;20016;-71
2021/01/10 10:37:19;;;;;;;8.07;4.00;;;9.30;74.10;;;;;;5073421;28;20040;-71
2021/01/10 10:39:45;;;;;;;6.20;4.10;;;9.30;74.00;;;;;;5072026;28;20025;-73
2021/01/10 10:42:15;;;;;;;7.13;3.08;;;9.30;74.30;;;;;;5073324;28;20028;-72
2021/01/10 10:44:42;;;;;;;7.63;3.90;;;9.30;74.30;;;;;;5073400;28;20025;-71
2021/01/10 10:47:14;;;;;;;8.50;3.75;;;9.20;74.40;;;;;;5073504;28;20040;-72
2021/01/10 10:49:41;;;;;;;10.15;4.63;;;9.20;74.90;;;;;;5073381;28;20027;-69
2021/01/10 10:52:09;;;;;;;6.60;3.55;;;9.20;74.80;;;;;;5072027;28;20362;-71
2021/01/10 10:54:35;;;;;;;8.20;3.83;;;9.30;74.30;;;;;;5073123;28;20060;-70
2021/01/10 10:57:00;;;;;;;8.05;4.07;;;9.30;74.50;;;;;;5073512;28;20052;-71
2021/01/10 10:59:26;;;;;;;8.82;4.10;;;9.30;74.30;;;;;;5073005;28;20111;-71
2021/01/10 11:01:52;;;;;;;10.43;4.30;;;9.30;74.30;;;;;;5073118;28;20024;-73
2021/01/10 11:04:17;;;;;;;9.73;4.20;;;9.40;74.20;;;;;;5073378;28;20020;-70
2021/01/10 11:06:46;;;;;;;5.90;3.45;;;9.40;74.20;;;;;;5073059;28;20036;-72
2021/01/10 11:09:12;;;;;;;12.18;5.05;;;9.40;74.90;;;;;;5072967;28;20021;-72
2021/01/10 11:11:39;;;;;;;8.43;3.70;;;9.40;74.30;;;;;;5072910;28;20559;-71
2021/01/10 11:14:06;;;;;;;7.35;3.92;;;9.40;74.00;;;;;;5073096;28;20466;-72
2021/01/10 11:16:33;;;;;;;8.60;4.70;;;9.50;74.10;;;;;;5073121;28;20430;-73
2021/01/10 11:19:00;;;;;;;6.25;3.83;;;9.40;74.00;;;;;;5072454;28;20036;-74
2021/01/10 11:21:33;;;;;;;8.55;4.25;;;9.40;74.00;;;;;;5072008;28;20031;-73
2021/01/10 11:23:59;;;;;;;11.25;4.60;;;9.40;74.00;;;;;;5071640;28;20021;-72
2021/01/10 11:26:25;;;;;;;10.80;4.97;;;9.40;74.10;;;;;;5073001;28;20576;-73
2021/01/10 11:28:51;;;;;;;8.55;4.30;;;9.50;74.20;;;;;;5073478;28;20073;-71
2021/01/10 11:31:23;;;;;;;9.60;4.10;;;9.50;74.00;;;;;;5073254;28;20020;-71
2021/01/10 11:33:49;;;;;;;9.65;4.50;;;9.50;73.90;;;;;;5073348;28;20472;-74
2021/01/10 11:36:16;;;;;;;11.95;4.97;;;9.60;74.20;;;;;;5073174;28;20028;-74
2021/01/10 11:38:42;;;;;;;8.32;4.50;;;9.60;74.10;;;;;;5072950;28;20059;-71
2021/01/10 11:41:09;;;;;;;9.85;4.95;;;9.60;74.10;;;;;;5073311;28;20369;-74
2021/01/10 11:43:35;;;;;;;11.63;4.60;;;9.60;74.00;;;;;;5073112;28;20025;-73
2021/01/10 11:46:06;;;;;;;8.20;3.60;;;9.60;74.00;;;;;;5073111;28;20021;-73
2021/01/10 11:48:36;;;;;;;9.13;4.97;;;9.60;74.70;;;;;;5073326;28;20031;-74
2021/01/10 11:51:05;;;;;;;11.13;4.78;;;9.50;74.20;;;;;;5073122;28;20103;-74
2021/01/10 11:53:31;;;;;;;10.43;5.32;;;9.50;74.30;;;;;;5073146;28;20032;-74
2021/01/10 11:56:00;;;;;;;8.93;4.35;;;9.40;74.10;;;;;;5071619;28;20028;-74
2021/01/10 11:58:27;;;;;;;10.18;4.78;;;9.40;74.50;;;;;;5073159;28;20048;-73
2021/01/10 12:00:53;;;;;;;10.57;5.18;;;9.40;74.20;;;;;;5072861;28;20040;-73
2021/01/10 12:03:20;;;;;;;8.38;5.35;;;9.40;74.40;;;;;;5073169;28;20470;-72
2021/01/10 12:05:46;;;;;;;8.45;4.57;;;9.40;74.50;;;;;;5073251;28;20020;-74
2021/01/10 12:08:12;;;;;;;10.50;4.55;;;9.40;74.90;;;;;;5073035;28;20115;-73
2021/01/10 12:10:38;;;;;;;10.80;5.35;;;9.40;74.80;;;;;;5071455;28;20045;-73
2021/01/10 12:13:05;;;;;;;7.70;4.53;;;9.40;74.80;;;;;;5072877;28;20017;-73
2021/01/10 12:15:33;;;;;;;11.85;6.15;;;9.40;74.50;;;;;;5071456;28;20023;-74
2021/01/10 12:18:02;;;;;;;9.32;5.20;;;9.40;74.50;;;;;;5073137;28;20017;-74
2021/01/10 12:20:28;;;;;;;7.57;4.68;;;9.40;74.50;;;;;;5072666;28;20036;-72
2021/01/10 12:22:54;;;;;;;8.50;4.30;;;9.40;74.30;;;;;;5072779;28;20024;-73
2021/01/10 12:25:20;;;;;;;7.95;4.75;;;9.40;74.60;;;;;;5072800;28;20086;-73
2021/01/10 12:27:46;;;;;;;8.82;4.95;;;9.50;74.40;;;;;;5072551;28;20033;-74
2021/01/10 12:30:13;;;;;;;7.43;4.18;;;9.50;74.10;;;;;;5072850;28;20094;-74
2021/01/10 12:32:38;;;;;;;9.23;5.10;;;9.50;74.40;;;;;;5073666;28;20421;-72
2021/01/10 12:35:06;;;;;;;11.02;5.13;;;9.50;74.20;;;;;;5076215;28;20085;-72
2021/01/10 12:37:33;;;;;;;10.82;4.45;;;9.40;74.50;;;;;;5076129;28;20040;-74
2021/01/10 12:39:59;;;;;;;9.27;4.78;;;9.30;74.80;;;;;;5076189;28;20021;-72
2021/01/10 12:42:25;;;;;;;7.63;4.75;;;9.30;75.40;;;;;;5075307;28;20029;-74
2021/01/10 12:44:51;;;;;;;7.10;4.68;;;9.20;75.40;;;;;;5074848;28;20458;-73
2021/01/10 12:47:17;;;;;;;8.23;4.78;;;9.20;75.80;;;;;;5076121;28;20041;-73
2021/01/10 12:49:44;;;;;;;10.40;4.93;;;9.20;76.30;;;;;;5075968;28;20039;-72
2021/01/10 12:52:09;;;;;;;13.02;5.68;;;9.10;76.40;;;;;;5076161;28;20157;-72
2021/01/10 12:54:35;;;;;;;15.20;5.40;;;9.20;76.50;;;;;;5076025;28;20056;-72
2021/01/10 12:57:01;;;;;;;7.80;5.18;;;9.30;76.70;;;;;;5074442;28;20458;-75
2021/01/10 12:59:26;;;;;;;10.27;5.65;;;9.30;76.40;;;;;;5075846;28;20028;-74
2021/01/10 13:01:52;;;;;;;8.35;5.45;;;9.20;76.90;;;;;;5076068;28;20029;-73
2021/01/10 13:04:18;;;;;;;9.85;5.07;;;9.20;76.70;;;;;;5075956;28;20446;-74